Time;durP1;ratioP1;P1;durP2;ratioP2;P2;SDS_P1;SDS_P2;PMS_P1;PMS_P2;Temp;Humidity;BMP_temperature;BMP_pressure;BME280_temperature;BME280_humidity;BME280_pressure;Samples;Min_cycle;Max_cycle;Signal;HPM_P1;HPM_P2
2023/11/23 00:01:36;;;;;;;9.00;7.37;;;;;;;0.56;83.52;96552.16;5064868;28;20239;-79
2023/11/23 00:04:01;;;;;;;9.77;7.77;;;;;;;0.46;83.77;96559.38;5060077;28;20189;-79
2023/11/23 00:06:27;;;;;;;9.73;8.00;;;;;;;0.47;84.14;96565.31;5041735;28;20250;-79
2023/11/23 00:08:52;;;;;;;10.60;8.00;;;;;;;0.49;83.89;96560.97;5040057;28;20277;-79
2023/11/23 00:11:18;;;;;;;9.73;7.83;;;;;;;0.29;84.82;96556.66;5066469;28;20212;-79
2023/11/23 00:13:43;;;;;;;12.07;8.10;;;;;;;0.32;84.41;96561.63;5062184;28;20229;-79
2023/11/23 00:16:08;;;;;;;10.30;7.13;;;;;;;0.38;84.77;96542.69;5041802;28;20198;-79
2023/11/23 00:18:34;;;;;;;10.67;7.30;;;;;;;0.41;83.90;96551.03;5062449;28;20185;-79
2023/11/23 00:20:59;;;;;;;9.53;7.10;;;;;;;0.47;84.20;96555.09;5046093;28;20239;-79
2023/11/23 00:23:24;;;;;;;9.77;7.93;;;;;;;0.45;84.11;96554.31;5066782;28;20595;-78
2023/11/23 00:25:50;;;;;;;8.87;7.40;;;;;;;0.44;84.04;96560.28;5039481;28;20671;-80
2023/11/23 00:28:15;;;;;;;10.33;7.70;;;;;;;0.43;84.34;96568.84;5058011;28;20758;-79
2023/11/23 00:30:40;;;;;;;10.20;7.37;;;;;;;0.48;84.13;96572.91;5045141;28;20192;-79
2023/11/23 00:33:06;;;;;;;10.50;8.17;;;;;;;0.51;84.01;96571.94;5061643;28;20247;-79
2023/11/23 00:35:31;;;;;;;9.00;7.63;;;;;;;0.46;84.59;96571.31;5039258;28;20193;-79
2023/11/23 00:37:56;;;;;;;9.40;7.93;;;;;;;0.52;84.08;96571.88;5057155;28;20233;-79
2023/11/23 00:40:22;;;;;;;8.53;7.07;;;;;;;0.37;84.80;96564.00;5053129;28;20205;-79
2023/11/23 00:42:47;;;;;;;9.73;7.57;;;;;;;0.49;84.52;96559.22;5060623;28;20260;-79
2023/11/23 00:45:14;;;;;;;9.53;7.00;;;;;;;0.56;83.98;96564.94;5042725;28;20289;-79
2023/11/23 00:47:43;;;;;;;9.20;6.93;;;;;;;0.55;84.17;96560.72;5039752;28;20189;-79
2023/11/23 00:50:08;;;;;;;12.03;7.47;;;;;;;0.39;84.89;96552.84;5064301;28;20196;-79
2023/11/23 00:52:34;;;;;;;11.00;7.77;;;;;;;0.46;84.77;96554.25;5059950;28;20288;-79
2023/11/23 00:55:00;;;;;;;10.43;7.73;;;;;;;0.47;85.18;96548.25;5059025;28;20193;-79
2023/11/23 00:57:25;;;;;;;10.20;6.67;;;;;;;0.60;84.62;96551.13;5037740;28;20238;-79
2023/11/23 00:59:50;;;;;;;9.17;7.27;;;;;;;0.61;84.82;96557.06;5058143;28;20211;-79
2023/11/23 01:02:15;;;;;;;11.70;7.30;;;;;;;0.63;84.32;96576.56;5064361;28;20217;-79
2023/11/23 01:04:42;;;;;;;9.33;7.23;;;;;;;0.53;84.88;96560.78;5041743;28;20559;-79
2023/11/23 01:07:08;;;;;;;9.13;7.07;;;;;;;0.56;84.34;96552.16;5040475;28;20288;-79
2023/11/23 01:09:33;;;;;;;11.17;7.70;;;;;;;0.54;85.43;96554.78;5057533;28;20220;-79
2023/11/23 01:11:58;;;;;;;9.30;7.13;;;;;;;0.65;84.51;96554.34;5036186;28;20258;-80
2023/11/23 01:14:24;;;;;;;10.07;7.93;;;;;;;0.57;85.12;96556.38;5062309;28;20181;-79
2023/11/23 01:16:49;;;;;;;11.17;8.13;;;;;;;0.62;85.10;96554.47;5059958;28;20236;-79
2023/11/23 01:19:14;;;;;;;10.03;7.90;;;;;;;0.76;84.35;96551.31;5052910;28;20189;-80
2023/11/23 01:21:40;;;;;;;9.07;7.30;;;;;;;0.85;83.84;96554.34;5039898;28;20214;-79
2023/11/23 01:24:05;;;;;;;8.73;7.33;;;;;;;0.67;84.15;96547.44;5034289;28;20215;-79
2023/11/23 01:26:31;;;;;;;10.23;7.30;;;;;;;0.72;84.50;96555.75;5043940;28;20682;-79
2023/11/23 01:28:56;;;;;;;10.43;7.57;;;;;;;0.79;84.21;96549.47;5040399;28;20197;-79
2023/11/23 01:31:22;;;;;;;9.20;6.63;;;;;;;0.75;84.07;96535.16;5056581;28;20201;-80
2023/11/23 01:33:47;;;;;;;8.93;6.63;;;;;;;0.82;83.60;96541.69;5062972;28;20205;-79
2023/11/23 01:36:12;;;;;;;8.87;7.10;;;;;;;0.74;83.44;96538.63;5061303;28;20198;-79
2023/11/23 01:38:38;;;;;;;8.13;6.70;;;;;;;0.73;83.25;96536.13;5041434;28;20188;-79
2023/11/23 01:41:03;;;;;;;9.93;7.00;;;;;;;0.71;82.76;96533.63;5042755;28;20212;-79
2023/11/23 01:43:31;;;;;;;8.13;6.80;;;;;;;0.64;82.80;96527.13;5056619;28;20188;-80
2023/11/23 01:45:56;;;;;;;9.03;6.83;;;;;;;0.64;83.74;96514.34;5062498;28;20291;-79
2023/11/23 01:48:22;;;;;;;8.23;6.30;;;;;;;0.62;82.94;96513.56;5064477;28;20228;-78
2023/11/23 01:50:48;;;;;;;8.27;6.50;;;;;;;0.60;83.30;96512.78;5057220;28;20177;-79
2023/11/23 01:53:14;;;;;;;8.67;6.20;;;;;;;0.30;84.53;96508.94;5040849;28;20192;-78
2023/11/23 01:55:39;;;;;;;8.53;6.40;;;;;;;0.44;83.71;96521.97;5055409;28;20561;-79
2023/11/23 01:58:06;;;;;;;6.57;5.60;;;;;;;0.39;83.60;96517.06;5059604;28;20189;-79
2023/11/23 02:00:32;;;;;;;7.93;5.73;;;;;;;0.37;84.31;96512.91;5038587;28;20209;-79
2023/11/23 02:03:00;;;;;;;7.13;5.23;;;;;;;0.52;83.51;96502.03;5040314;28;20604;-79
2023/11/23 02:05:26;;;;;;;8.50;5.20;;;;;;;0.50;83.72;96498.72;5058602;28;20181;-79
2023/11/23 02:07:51;;;;;;;6.27;4.67;;;;;;;0.36;83.52;96494.19;5058345;28;20558;-79
2023/11/23 02:10:16;;;;;;;7.47;5.73;;;;;;;0.34;84.46;96505.34;5036666;28;20649;-78
2023/11/23 02:12:43;;;;;;;5.93;4.90;;;;;;;0.28;84.32;96512.38;5052453;28;20201;-79
2023/11/23 02:15:09;;;;;;;6.07;4.73;;;;;;;0.38;83.83;96500.06;5043285;28;20231;-79
2023/11/23 02:17:34;;;;;;;6.90;4.73;;;;;;;0.43;83.28;96492.19;5059459;28;20607;-79
2023/11/23 02:20:00;;;;;;;5.33;4.20;;;;;;;0.35;83.97;96500.16;5043089;28;20205;-79
2023/11/23 02:22:26;;;;;;;6.87;5.13;;;;;;;0.38;83.53;96497.50;5051321;28;20201;-79
2023/11/23 02:24:52;;;;;;;7.07;4.00;;;;;;;0.24;83.72;96484.47;5044731;28;20204;-79
2023/11/23 02:27:17;;;;;;;5.67;4.47;;;;;;;0.16;83.97;96482.22;5043514;28;20684;-79
2023/11/23 02:29:42;;;;;;;6.23;4.63;;;;;;;0.21;83.47;96480.31;5057212;28;20188;-79
2023/11/23 02:32:09;;;;;;;5.93;4.13;;;;;;;0.35;82.78;96478.91;5044267;28;20205;-79
2023/11/23 02:34:35;;;;;;;5.70;3.77;;;;;;;0.34;82.68;96478.06;5055723;28;20188;-79
2023/11/23 02:37:01;;;;;;;5.40;4.30;;;;;;;0.37;82.97;96477.13;5034516;28;20261;-78
2023/11/23 02:39:27;;;;;;;4.60;3.50;;;;;;;0.03;83.73;96475.94;5061136;28;20193;-79
2023/11/23 02:41:53;;;;;;;5.23;3.77;;;;;;;0.15;83.50;96483.09;5059117;28;20338;-79
2023/11/23 02:44:19;;;;;;;3.43;3.07;;;;;;;0.31;82.15;96478.22;5041001;28;20204;-80
2023/11/23 02:46:44;;;;;;;4.80;3.10;;;;;;;0.40;80.92;96475.28;5057444;28;20182;-79
2023/11/23 02:49:09;;;;;;;4.73;2.93;;;;;;;0.53;81.08;96468.78;5060932;28;20190;-78
2023/11/23 02:51:35;;;;;;;3.50;2.87;;;;;;;0.56;80.85;96471.19;5063393;28;20252;-79
2023/11/23 02:54:00;;;;;;;3.93;3.13;;;;;;;0.51;80.39;96478.22;5056479;28;20566;-80
2023/11/23 02:56:26;;;;;;;4.97;3.03;;;;;;;0.57;80.48;96479.69;5043721;28;20182;-79
2023/11/23 02:58:51;;;;;;;4.33;3.00;;;;;;;0.59;80.30;96467.66;5062696;28;20582;-79
2023/11/23 03:01:18;;;;;;;4.63;3.13;;;;;;;0.54;80.55;96467.88;5068652;28;20224;-79
2023/11/23 03:03:43;;;;;;;3.33;2.50;;;;;;;0.51;79.87;96464.59;5062008;28;20200;-80
2023/11/23 03:06:09;;;;;;;4.10;3.00;;;;;;;0.51;79.28;96475.66;5056691;28;20182;-79
2023/11/23 03:08:35;;;;;;;4.30;2.80;;;;;;;0.60;79.01;96486.38;5061314;28;20826;-79
2023/11/23 03:11:01;;;;;;;2.77;2.53;;;;;;;0.54;78.78;96480.66;5046245;28;20178;-79
2023/11/23 03:13:27;;;;;;;3.57;2.50;;;;;;;0.52;78.57;96481.59;5066177;28;20186;-79
2023/11/23 03:15:53;;;;;;;3.43;2.63;;;;;;;0.48;78.13;96486.00;5043373;28;20276;-79
2023/11/23 03:18:18;;;;;;;2.93;2.60;;;;;;;0.59;77.72;96482.19;5062762;28;20281;-79
2023/11/23 03:20:43;;;;;;;3.43;2.73;;;;;;;0.53;77.49;96486.66;5062107;28;20206;-78
2023/11/23 03:23:09;;;;;;;3.13;2.60;;;;;;;0.47;78.30;96484.34;5060398;28;20209;-79
2023/11/23 03:25:34;;;;;;;2.90;2.50;;;;;;;0.48;78.36;96478.34;5067846;28;20185;-79
2023/11/23 03:27:59;;;;;;;3.00;2.50;;;;;;;0.40;79.09;96477.00;5060592;28;20185;-79
2023/11/23 03:30:25;;;;;;;2.90;2.60;;;;;;;0.40;79.05;96477.00;5060909;28;20267;-79
2023/11/23 03:32:50;;;;;;;2.97;2.37;;;;;;;0.34;79.64;96478.06;5061190;28;20797;-79
2023/11/23 03:35:16;;;;;;;4.10;2.50;;;;;;;0.24;79.51;96485.28;5066722;28;20709;-79
2023/11/23 03:37:41;;;;;;;4.50;2.40;;;;;;;0.33;79.88;96483.25;5058291;28;20186;-79
2023/11/23 03:40:07;;;;;;;4.30;2.53;;;;;;;0.27;79.75;96477.53;5058213;28;20234;-79
2023/11/23 03:42:33;;;;;;;3.13;2.60;;;;;;;0.18;80.20;96469.41;5063946;28;20283;-78
2023/11/23 03:44:58;;;;;;;4.87;2.70;;;;;;;0.24;80.08;96475.06;5063211;28;20694;-78
2023/11/23 03:47:24;;;;;;;3.93;3.00;;;;;;;0.25;80.11;96471.63;5057774;28;20227;-77
2023/11/23 03:49:50;;;;;;;3.53;2.90;;;;;;;0.32;79.63;96473.94;5038879;28;20188;-79
2023/11/23 03:52:16;;;;;;;3.07;2.70;;;;;;;0.35;79.90;96473.78;5063066;28;20198;-79
2023/11/23 03:54:41;;;;;;;3.20;2.60;;;;;;;0.19;80.44;96469.34;5045461;28;20295;-79
2023/11/23 03:57:06;;;;;;;2.83;2.50;;;;;;;0.21;80.17;96464.16;5056597;28;20196;-79
2023/11/23 03:59:32;;;;;;;4.40;3.10;;;;;;;0.16;80.45;96463.50;5062320;28;20196;-78
2023/11/23 04:01:57;;;;;;;2.97;2.20;;;;;;;0.18;80.32;96472.78;5040146;28;20206;-78
2023/11/23 04:04:23;;;;;;;4.47;2.63;;;;;;;0.09;80.43;96468.03;5057083;28;20178;-78
2023/11/23 04:06:48;;;;;;;3.50;2.60;;;;;;;0.20;80.17;96475.28;5073764;28;20242;-78
2023/11/23 04:09:14;;;;;;;3.17;2.63;;;;;;;0.04;81.31;96469.94;5085478;28;20182;-77
2023/11/23 04:11:39;;;;;;;3.57;2.80;;;;;;;0.14;80.14;96470.41;5089027;28;20188;-77
2023/11/23 04:14:05;;;;;;;3.17;2.73;;;;;;;0.10;80.64;96469.69;5083760;28;20173;-77
2023/11/23 04:16:31;;;;;;;3.03;2.47;;;;;;;0.13;80.45;96469.56;5077063;28;20735;-78
2023/11/23 04:18:56;;;;;;;3.13;2.83;;;;;;;-0.04;81.23;96462.59;5063583;28;20177;-78
2023/11/23 04:21:21;;;;;;;2.83;2.30;;;;;;;0.09;80.75;96465.50;5042029;28;20520;-78
2023/11/23 04:23:47;;;;;;;3.53;2.57;;;;;;;0.15;80.21;96465.22;5067471;28;20661;-78
2023/11/23 04:26:12;;;;;;;4.43;2.63;;;;;;;0.02;80.75;96466.63;5044570;28;20199;-78
2023/11/23 04:28:39;;;;;;;3.40;2.77;;;;;;;0.12;80.46;96469.63;5048170;28;20185;-79
2023/11/23 04:31:05;;;;;;;4.40;2.70;;;;;;;0.11;80.58;96470.53;5058700;28;20181;-78
2023/11/23 04:33:30;;;;;;;3.40;2.20;;;;;;;0.03;80.79;96465.72;5064674;28;20187;-78
2023/11/23 04:35:55;;;;;;;4.10;2.63;;;;;;;0.11;80.63;96473.91;5069024;28;20189;-78
2023/11/23 04:38:21;;;;;;;3.73;2.80;;;;;;;0.12;80.18;96474.75;5048915;28;20179;-77
2023/11/23 04:40:46;;;;;;;4.17;3.00;;;;;;;0.08;80.68;96476.56;5041944;28;20289;-78
2023/11/23 04:43:12;;;;;;;4.17;3.00;;;;;;;0.14;80.40;96475.50;5058241;28;20201;-78
2023/11/23 04:45:38;;;;;;;4.33;2.60;;;;;;;0.17;80.52;96473.66;5067618;28;20185;-78
2023/11/23 04:48:04;;;;;;;3.83;2.93;;;;;;;0.12;80.84;96473.03;5060226;28;20177;-78
2023/11/23 04:50:29;;;;;;;3.97;2.90;;;;;;;0.08;80.80;96468.91;5062165;28;20607;-77
2023/11/23 04:52:57;;;;;;;3.93;2.93;;;;;;;0.05;80.92;96465.66;5043358;28;20241;-77
2023/11/23 04:55:22;;;;;;;4.27;2.90;;;;;;;0.15;80.64;96472.88;5068393;28;20178;-78
2023/11/23 04:57:47;;;;;;;4.33;2.90;;;;;;;0.03;81.34;96464.91;5086402;28;20166;-77
2023/11/23 05:00:13;;;;;;;4.57;3.13;;;;;;;0.18;80.51;96465.13;5073036;28;20240;-77
2023/11/23 05:02:42;;;;;;;5.67;2.80;;;;;;;0.17;80.69;96465.16;5078102;28;20265;-77
2023/11/23 05:05:10;;;;;;;3.63;3.07;;;;;;;0.15;80.64;96472.06;5077830;28;20170;-76
2023/11/23 05:07:38;;;;;;;4.37;2.87;;;;;;;0.13;81.07;96466.19;5069694;28;20181;-76
2023/11/23 05:10:06;;;;;;;3.47;2.90;;;;;;;0.05;81.53;96461.38;5082173;28;20170;-76
2023/11/23 05:12:31;;;;;;;4.30;3.33;;;;;;;0.07;81.34;96464.69;5087030;28;20224;-76
2023/11/23 05:14:56;;;;;;;4.90;3.57;;;;;;;0.00;81.56;96453.09;5060088;28;20166;-76
2023/11/23 05:17:22;;;;;;;5.03;3.50;;;;;;;0.03;81.81;96460.63;5072834;28;20200;-76
2023/11/23 05:19:48;;;;;;;4.93;3.50;;;;;;;0.03;82.08;96460.63;5087506;28;20192;-76
2023/11/23 05:22:13;;;;;;;4.30;3.17;;;;;;;-0.08;82.41;96460.22;5083864;28;20212;-76
2023/11/23 05:24:38;;;;;;;3.70;3.27;;;;;;;0.02;82.06;96451.31;5077813;28;20197;-77
2023/11/23 05:27:04;;;;;;;4.47;3.03;;;;;;;-0.05;82.11;96452.44;5067012;28;20196;-77
2023/11/23 05:29:29;;;;;;;4.47;3.00;;;;;;;0.09;82.04;96462.06;5077673;28;20173;-75
2023/11/23 05:31:55;;;;;;;4.93;3.20;;;;;;;0.15;81.52;96467.78;5061664;28;20259;-77
2023/11/23 05:34:20;;;;;;;5.47;3.70;;;;;;;-0.01;82.05;96471.84;5061288;28;20185;-78
2023/11/23 05:36:46;;;;;;;5.17;3.03;;;;;;;-0.09;82.36;96477.28;5061995;28;20213;-75
2023/11/23 05:39:11;;;;;;;5.53;3.50;;;;;;;0.16;81.24;96474.53;5067602;28;20189;-78
2023/11/23 05:41:37;;;;;;;5.27;4.40;;;;;;;0.33;80.78;96475.59;5060771;28;20218;-79
2023/11/23 05:44:03;;;;;;;4.23;3.40;;;;;;;0.20;81.00;96475.28;5042498;28;20208;-78
2023/11/23 05:46:30;;;;;;;4.73;3.73;;;;;;;0.38;79.76;96479.63;5059765;28;20196;-78
2023/11/23 05:48:56;;;;;;;5.17;3.77;;;;;;;0.27;79.86;96480.06;5038857;28;20180;-79
2023/11/23 05:51:22;;;;;;;5.10;3.33;;;;;;;0.39;79.20;96475.34;5064551;28;20201;-77
2023/11/23 05:53:47;;;;;;;5.40;3.53;;;;;;;0.42;78.94;96485.44;5044483;28;20181;-78
2023/11/23 05:56:12;;;;;;;4.73;3.30;;;;;;;0.59;78.32;96471.94;5053845;28;20272;-77
2023/11/23 05:58:38;;;;;;;4.03;3.00;;;;;;;0.52;78.65;96479.88;5057979;28;20184;-78
2023/11/23 06:01:03;;;;;;;7.50;3.70;;;;;;;0.57;78.08;96477.97;5036357;28;20221;-78
2023/11/23 06:03:28;;;;;;;7.13;4.50;;;;;;;0.67;78.26;96472.47;5061791;28;20299;-78
2023/11/23 06:05:54;;;;;;;4.73;3.17;;;;;;;0.70;77.96;96474.88;5058575;28;20188;-78
2023/11/23 06:08:19;;;;;;;5.03;3.87;;;;;;;0.84;77.79;96475.97;5052924;28;20559;-78
2023/11/23 06:10:45;;;;;;;6.50;3.53;;;;;;;0.89;77.42;96478.34;5049143;28;20177;-77
2023/11/23 06:13:11;;;;;;;6.07;4.00;;;;;;;0.89;78.11;96472.41;5059291;28;20197;-78
2023/11/23 06:15:36;;;;;;;9.70;4.40;;;;;;;1.01;78.13;96466.72;5062521;28;20173;-78
2023/11/23 06:18:01;;;;;;;8.00;4.70;;;;;;;1.02;78.86;96466.66;5055586;28;20683;-78
2023/11/23 06:20:27;;;;;;;6.00;3.97;;;;;;;1.10;79.40;96479.13;5043068;28;20198;-78
2023/11/23 06:22:55;;;;;;;7.93;4.23;;;;;;;1.11;79.85;96475.66;5058210;28;20205;-77
2023/11/23 06:25:20;;;;;;;7.40;4.30;;;;;;;1.21;79.59;96474.34;5065261;28;20218;-78
2023/11/23 06:27:46;;;;;;;5.87;4.20;;;;;;;1.31;79.54;96473.03;5059650;28;20177;-78
2023/11/23 06:30:12;;;;;;;6.53;4.93;;;;;;;1.27;80.31;96479.19;5059157;28;20205;-77
2023/11/23 06:32:37;;;;;;;8.77;4.30;;;;;;;1.30;80.28;96483.34;5056347;28;20213;-77
2023/11/23 06:35:03;;;;;;;9.00;5.63;;;;;;;1.31;80.98;96490.94;5063029;28;20616;-77
2023/11/23 06:37:28;;;;;;;11.67;6.23;;;;;;;1.40;81.37;96489.72;5066461;28;20202;-77
2023/11/23 06:39:54;;;;;;;17.73;10.20;;;;;;;1.54;81.76;96482.25;5058608;28;20178;-77
2023/11/23 06:42:20;;;;;;;9.27;6.60;;;;;;;1.62;81.93;96492.16;5062330;28;20209;-77
2023/11/23 06:44:45;;;;;;;7.17;5.10;;;;;;;1.66;82.84;96494.47;5050692;28;20193;-78
2023/11/23 06:47:11;;;;;;;6.20;4.70;;;;;;;1.79;82.49;96489.63;5063636;28;20181;-77
2023/11/23 06:49:37;;;;;;;8.30;5.47;;;;;;;1.82;83.00;96492.03;5061862;28;20218;-79
2023/11/23 06:52:03;;;;;;;7.80;4.83;;;;;;;1.78;83.16;96487.97;5049226;28;20193;-79
2023/11/23 06:54:28;;;;;;;5.93;4.60;;;;;;;1.82;83.38;96486.91;5063402;28;20266;-78
2023/11/23 06:56:55;;;;;;;7.53;4.60;;;;;;;1.81;83.79;96477.59;5062937;28;20225;-78
2023/11/23 06:59:21;;;;;;;9.77;6.40;;;;;;;1.91;83.66;96475.41;5041223;28;20190;-79
2023/11/23 07:01:46;;;;;;;16.77;8.90;;;;;;;1.84;84.37;96474.88;5066345;28;20201;-77
2023/11/23 07:04:12;;;;;;;12.40;7.53;;;;;;;1.92;84.99;96480.47;5059148;28;20178;-78
2023/11/23 07:06:37;;;;;;;26.83;12.83;;;;;;;2.01;85.46;96473.25;5063604;28;20200;-79
2023/11/23 07:09:03;;;;;;;32.80;14.00;;;;;;;2.02;85.49;96469.78;5063572;28;20185;-79
2023/11/23 07:11:28;;;;;;;16.73;8.97;;;;;;;2.00;86.67;96462.16;5045062;28;20213;-78
2023/11/23 07:13:53;;;;;;;6.77;4.43;;;;;;;2.21;85.27;96461.16;5059311;28;20192;-77
2023/11/23 07:16:19;;;;;;;7.13;3.97;;;;;;;2.41;84.56;96459.34;5046739;28;20197;-79
2023/11/23 07:18:45;;;;;;;4.70;3.47;;;;;;;2.09;85.69;96466.03;5065781;28;20189;-78
2023/11/23 07:21:10;;;;;;;5.97;3.97;;;;;;;2.18;85.40;96463.03;5047948;28;20242;-77
2023/11/23 07:23:36;;;;;;;5.77;3.60;;;;;;;2.33;84.77;96464.03;5000499;28;20187;-76
2023/11/23 07:26:02;;;;;;;7.57;5.00;;;;;;;2.18;85.32;96465.59;5024081;28;20183;-77
2023/11/23 07:28:27;;;;;;;4.57;3.40;;;;;;;2.04;86.68;96462.88;5026682;28;20198;-77
2023/11/23 07:31:02;;;;;;;9.17;5.10;;;;;;;2.41;85.60;96472.16;5008550;28;20175;-77
2023/11/23 07:33:33;;;;;;;8.10;5.30;;;;;;;2.44;85.61;96472.00;5018534;28;20711;-77
2023/11/23 07:35:59;;;;;;;6.33;3.87;;;;;;;2.26;86.13;96464.31;5017082;28;20179;-78
2023/11/23 07:38:25;;;;;;;12.87;8.07;;;;;;;2.38;85.57;96474.84;5029543;28;20225;-78
2023/11/23 07:40:50;;;;;;;9.13;5.77;;;;;;;2.49;86.33;96470.88;5022457;28;20211;-77
2023/11/23 07:43:16;;;;;;;8.03;5.30;;;;;;;2.65;88.24;96467.53;5038109;28;20267;-77
2023/11/23 07:45:41;;;;;;;7.33;5.13;;;;;;;2.99;87.23;96476.91;5014775;28;20182;-77
2023/11/23 07:48:13;;;;;;;7.33;3.93;;;;;;;3.07;86.91;96473.06;5014035;28;20628;-77
2023/11/23 07:50:39;;;;;;;6.53;3.73;;;;;;;3.27;86.81;96478.88;5018587;28;20388;-78
2023/11/23 07:53:04;;;;;;;5.40;2.87;;;;;;;3.43;86.96;96484.88;5023228;28;20298;-78
2023/11/23 07:55:33;;;;;;;4.10;2.53;;;;;;;3.52;86.67;96483.56;5025943;28;20218;-78
2023/11/23 07:57:59;;;;;;;4.30;2.87;;;;;;;3.59;86.94;96488.28;5023011;28;20179;-78
2023/11/23 08:00:25;;;;;;;5.07;3.23;;;;;;;3.69;87.61;96480.91;5014270;28;20213;-77
2023/11/23 08:02:51;;;;;;;4.83;3.43;;;;;;;3.81;87.68;96477.69;5026686;28;20195;-77
2023/11/23 08:05:16;;;;;;;4.20;3.43;;;;;;;3.77;88.71;96488.22;5022238;28;20658;-77
2023/11/23 08:07:42;;;;;;;4.50;2.83;;;;;;;3.84;88.97;96476.69;5013839;28;20699;-77
2023/11/23 08:10:08;;;;;;;3.93;3.10;;;;;;;3.85;89.19;96476.59;5026018;28;20187;-79
2023/11/23 08:12:34;;;;;;;4.47;3.20;;;;;;;3.80;89.54;96488.88;5036778;28;20194;-79
2023/11/23 08:14:59;;;;;;;3.73;3.20;;;;;;;3.89;89.40;96490.13;5021813;28;20186;-79
2023/11/23 08:17:25;;;;;;;3.03;2.33;;;;;;;4.06;89.01;96487.44;5016727;28;20635;-79
2023/11/23 08:19:50;;;;;;;3.63;2.50;;;;;;;4.03;89.16;96492.75;5026394;28;20541;-79
2023/11/23 08:22:19;;;;;;;3.77;2.57;;;;;;;4.07;89.70;96501.13;5018206;28;20311;-79
2023/11/23 08:24:44;;;;;;;3.60;2.80;;;;;;;4.16;89.49;96498.88;5017202;28;20234;-80
2023/11/23 08:27:10;;;;;;;5.33;2.90;;;;;;;4.30;88.78;96492.13;5019673;28;20206;-79
2023/11/23 08:29:35;;;;;;;2.47;1.90;;;;;;;4.09;89.85;96489.84;5018615;28;20266;-78
2023/11/23 08:32:01;;;;;;;2.67;1.93;;;;;;;3.96;90.98;96491.41;5018793;28;20218;-79
2023/11/23 08:34:26;;;;;;;3.13;2.07;;;;;;;3.97;91.06;96485.38;5023346;28;20190;-80
2023/11/23 08:36:54;;;;;;;4.07;2.30;;;;;;;3.97;90.94;96470.78;5019509;28;20199;-80
2023/11/23 08:39:19;;;;;;;4.37;2.77;;;;;;;4.05;90.24;96470.34;5020297;28;20242;-79
2023/11/23 08:41:46;;;;;;;4.60;3.10;;;;;;;4.10;90.39;96457.25;5029695;28;20249;-80
2023/11/23 08:44:11;;;;;;;4.30;3.33;;;;;;;4.08;89.81;96451.38;5025972;28;20190;-79
2023/11/23 08:46:40;;;;;;;4.40;2.83;;;;;;;4.10;89.66;96452.94;5044749;28;20179;-80
2023/11/23 08:49:05;;;;;;;2.53;1.83;;;;;;;3.97;91.29;96452.78;5025908;28;20253;-78
2023/11/23 08:51:30;;;;;;;3.47;1.90;;;;;;;3.96;92.20;96458.00;5026625;28;20692;-79
2023/11/23 08:53:56;;;;;;;3.77;2.47;;;;;;;4.20;91.68;96450.69;5024206;28;20668;-78
2023/11/23 08:56:22;;;;;;;3.20;2.30;;;;;;;4.29;91.91;96450.16;5017073;28;20192;-79
2023/11/23 08:58:48;;;;;;;3.23;2.07;;;;;;;4.43;91.79;96450.22;4999913;28;20689;-79
2023/11/23 09:01:14;;;;;;;1.80;1.70;;;;;;;4.30;92.42;96453.56;5025552;28;20712;-78
2023/11/23 09:03:40;;;;;;;1.87;1.67;;;;;;;4.49;91.70;96456.72;5012922;28;20648;-78
2023/11/23 09:06:06;;;;;;;3.47;2.20;;;;;;;4.37;91.53;96454.88;5008768;28;20198;-77
2023/11/23 09:08:31;;;;;;;4.33;2.00;;;;;;;4.46;90.81;96449.19;5003602;28;20231;-80
2023/11/23 09:10:57;;;;;;;2.57;2.00;;;;;;;4.13;93.04;96446.78;5018206;28;20237;-78
2023/11/23 09:13:25;;;;;;;3.70;2.30;;;;;;;4.30;92.82;96438.97;5026025;28;20247;-79
2023/11/23 09:15:51;;;;;;;4.43;2.20;;;;;;;4.19;92.57;96438.75;5025686;28;20305;-78
2023/11/23 09:18:17;;;;;;;2.13;1.90;;;;;;;4.26;92.75;96435.75;5023817;28;20179;-78
2023/11/23 09:20:42;;;;;;;2.87;1.90;;;;;;;4.44;92.03;96438.19;5005974;28;20292;-78
2023/11/23 09:23:08;;;;;;;2.33;1.50;;;;;;;4.42;92.05;96435.69;5021183;28;20689;-78
2023/11/23 09:25:33;;;;;;;3.37;1.90;;;;;;;4.53;91.72;96433.34;5021610;28;20248;-78
2023/11/23 09:28:02;;;;;;;3.80;2.23;;;;;;;4.29;92.84;96426.19;5027793;28;20191;-77
2023/11/23 09:30:27;;;;;;;3.93;2.60;;;;;;;4.19;93.11;96436.19;5030742;28;20233;-78
2023/11/23 09:32:53;;;;;;;3.67;2.90;;;;;;;4.47;91.51;96436.25;5035143;28;20568;-77
2023/11/23 09:35:19;;;;;;;3.83;2.30;;;;;;;4.35;92.20;96441.28;5025021;28;20194;-77
2023/11/23 09:37:44;;;;;;;3.50;2.70;;;;;;;4.53;91.32;96428.19;4999056;28;20191;-77
2023/11/23 09:40:16;;;;;;;3.40;2.63;;;;;;;4.48;92.39;96416.50;5021483;28;20246;-77
2023/11/23 09:42:42;;;;;;;4.50;2.83;;;;;;;4.49;92.33;96416.41;5011183;28;20321;-77
2023/11/23 09:45:10;;;;;;;2.10;1.70;;;;;;;4.50;93.37;96409.50;5026258;28;20230;-78
2023/11/23 09:47:36;;;;;;;2.97;1.97;;;;;;;4.56;93.16;96411.72;5035925;28;20724;-78
2023/11/23 09:50:04;;;;;;;2.80;2.50;;;;;;;4.69;92.54;96402.41;5020990;28;20187;-79
2023/11/23 09:52:30;;;;;;;1.50;1.40;;;;;;;4.63;93.18;96396.78;5028506;28;20225;-79
2023/11/23 09:55:00;;;;;;;1.90;1.60;;;;;;;4.70;92.83;96398.06;5032819;28;20198;-79
2023/11/23 09:57:25;;;;;;;1.97;1.50;;;;;;;4.81;92.16;96391.34;5031514;28;20175;-79
2023/11/23 09:59:51;;;;;;;1.80;1.30;;;;;;;4.91;91.33;96389.06;5019377;28;20250;-78
2023/11/23 10:02:21;;;;;;;2.40;1.50;;;;;;;5.17;89.87;96386.66;5041715;28;20195;-80
2023/11/23 10:04:48;;;;;;;2.17;1.50;;;;;;;5.12;89.17;96389.50;5021603;28;20206;-79
2023/11/23 10:07:16;;;;;;;1.37;1.27;;;;;;;5.16;90.06;96395.31;5029202;28;20654;-78
2023/11/23 10:09:41;;;;;;;1.50;1.40;;;;;;;5.29;89.18;96398.75;5003459;28;20763;-80
2023/11/23 10:12:06;;;;;;;1.27;1.17;;;;;;;5.39;89.68;96380.09;5021275;28;20207;-79
2023/11/23 10:14:32;;;;;;;1.30;1.20;;;;;;;5.59;88.39;96383.16;5029402;28;20195;-80
2023/11/23 10:16:57;;;;;;;1.10;1.00;;;;;;;5.61;88.27;96368.44;5006553;28;20179;-80
2023/11/23 10:19:23;;;;;;;1.30;1.13;;;;;;;5.64;88.23;96365.66;5043518;28;20639;-79
2023/11/23 10:21:48;;;;;;;1.30;1.20;;;;;;;5.72;87.29;96355.69;5012678;28;20302;-80
2023/11/23 10:24:16;;;;;;;4.97;2.47;;;;;;;5.99;86.17;96354.84;5035297;28;20206;-80
2023/11/23 10:26:42;;;;;;;4.30;2.40;;;;;;;5.89;86.28;96352.84;5017829;28;20660;-79
2023/11/23 10:29:09;;;;;;;1.50;1.20;;;;;;;6.13;85.21;96354.78;5042490;28;20190;-78
2023/11/23 10:31:35;;;;;;;1.30;1.20;;;;;;;5.99;85.69;96354.84;5016849;28;20333;-80
2023/11/23 10:34:02;;;;;;;1.50;1.20;;;;;;;6.20;84.84;96354.28;5017489;28;20218;-80
2023/11/23 10:36:28;;;;;;;1.57;1.20;;;;;;;6.01;85.06;96353.84;5005254;28;20249;-80
2023/11/23 10:38:56;;;;;;;2.13;1.63;;;;;;;6.13;85.54;96362.53;5018500;28;20183;-78
2023/11/23 10:41:21;;;;;;;1.37;1.27;;;;;;;6.45;84.14;96368.16;5027386;28;20221;-79
2023/11/23 10:43:49;;;;;;;1.40;1.30;;;;;;;6.53;83.86;96358.94;5024231;28;20197;-79
2023/11/23 10:46:15;;;;;;;1.70;1.03;;;;;;;6.69;83.03;96350.16;5022848;28;20187;-79
2023/11/23 10:48:42;;;;;;;0.80;0.80;;;;;;;6.10;84.37;96352.41;5035430;28;20206;-79
2023/11/23 10:51:07;;;;;;;0.97;0.80;;;;;;;6.36;84.31;96340.34;5015569;28;20191;-80
2023/11/23 10:53:33;;;;;;;1.17;1.07;;;;;;;6.50;83.52;96341.09;5008453;28;20265;-80
2023/11/23 10:56:03;;;;;;;1.53;1.30;;;;;;;6.42;83.96;96345.94;5004714;28;20684;-80
2023/11/23 10:58:31;;;;;;;2.80;1.30;;;;;;;6.78;83.16;96327.13;5036952;28;20213;-79
2023/11/23 11:00:57;;;;;;;1.50;1.40;;;;;;;6.79;82.61;96322.78;5023731;28;20271;-80
2023/11/23 11:03:23;;;;;;;2.50;1.70;;;;;;;6.87;82.49;96317.94;5025797;28;20738;-78
2023/11/23 11:05:49;;;;;;;1.03;1.00;;;;;;;6.44;83.32;96307.94;5022438;28;20202;-79
2023/11/23 11:08:19;;;;;;;1.80;1.07;;;;;;;6.78;83.12;96305.66;5047135;28;20243;-80
2023/11/23 11:10:50;;;;;;;1.23;1.00;;;;;;;6.89;82.89;96310.94;5021908;28;20179;-77
2023/11/23 11:13:24;;;;;;;1.17;0.80;;;;;;;6.98;82.09;96307.69;5014478;28;20210;-77
2023/11/23 11:15:56;;;;;;;1.67;1.30;;;;;;;7.11;81.50;96302.50;5021378;28;20182;-78
2023/11/23 11:18:31;;;;;;;0.80;0.80;;;;;;;6.71;83.17;96299.25;5012290;28;20183;-79
2023/11/23 11:21:07;;;;;;;1.00;0.90;;;;;;;7.31;81.02;96301.91;5011009;28;20207;-79
2023/11/23 11:23:40;;;;;;;1.67;1.40;;;;;;;7.48;80.20;96308.44;5025505;28;20221;-80
2023/11/23 11:26:10;;;;;;;1.27;1.10;;;;;;;7.57;79.64;96312.13;5028117;28;20210;-79
2023/11/23 11:28:37;;;;;;;0.60;0.60;;;;;;;7.45;79.21;96307.84;5026562;28;20265;-78
2023/11/23 11:31:07;;;;;;;1.80;1.00;;;;;;;7.32;79.22;96303.53;5022117;28;20211;-80
2023/11/23 11:33:32;;;;;;;1.13;0.80;;;;;;;7.54;79.84;96310.59;5030410;28;20675;-79
2023/11/23 11:35:59;;;;;;;0.73;0.70;;;;;;;7.36;79.04;96299.00;5025652;28;20187;-79